createdAt,value
2022-10-08T00:01:12.394Z,46.10
2022-10-08T00:03:43.342Z,46.20
2022-10-08T00:06:16.290Z,46.20
2022-10-08T00:08:49.394Z,46.30
2022-10-08T00:11:27.926Z,46.30
2022-10-08T00:13:55.341Z,46.30
2022-10-08T00:16:34.237Z,46.20
2022-10-08T00:19:04.883Z,47.00
2022-10-08T00:21:35.987Z,46.40
2022-10-08T00:24:05.493Z,46.40
2022-10-08T00:26:37.474Z,46.40
2022-10-08T00:29:08.079Z,46.50
2022-10-08T00:31:40.514Z,46.50
2022-10-08T00:34:10.015Z,46.60
2022-10-08T00:36:38.408Z,47.10
2022-10-08T00:39:08.082Z,46.60
2022-10-08T00:41:38.203Z,46.70
2022-10-08T00:44:46.841Z,46.70
2022-10-08T00:47:19.117Z,47.20
2022-10-08T00:49:51.401Z,46.70
2022-10-08T00:52:19.562Z,46.70
2022-10-08T00:54:50.014Z,46.70
2022-10-08T00:57:17.915Z,46.70
2022-10-08T00:59:44.554Z,46.70
2022-10-08T01:02:12.227Z,46.80
2022-10-08T01:04:40.666Z,46.80
2022-10-08T01:07:33.548Z,46.90
2022-10-08T01:10:22.569Z,47.40
2022-10-08T01:13:29.829Z,47.20
2022-10-08T01:16:02.861Z,47.30
2022-10-08T01:18:57.633Z,46.80
2022-10-08T01:21:53.095Z,47.30
2022-10-08T01:24:45.125Z,47.50
2022-10-08T01:27:36.981Z,47.00
2022-10-08T01:30:09.761Z,47.30
2022-10-08T01:32:41.428Z,47.10
2022-10-08T01:35:20.252Z,47.10
2022-10-08T01:37:48.325Z,47.20
2022-10-08T01:40:20.326Z,47.60
2022-10-08T01:42:49.638Z,47.30
2022-10-08T01:45:24.837Z,47.20
2022-10-08T01:47:52.876Z,47.30
2022-10-08T01:50:32.867Z,47.30
2022-10-08T01:53:04.822Z,47.40
2022-10-08T01:55:37.428Z,47.40
2022-10-08T01:58:08.308Z,47.40
2022-10-08T02:00:37.761Z,47.50
2022-10-08T02:03:04.580Z,47.50
2022-10-08T02:05:36.057Z,47.40
2022-10-08T02:08:03.479Z,47.50
2022-10-08T02:10:30.519Z,47.50
2022-10-08T02:12:57.746Z,47.50
2022-10-08T02:15:50.335Z,47.60
2022-10-08T02:18:39.287Z,48.20
2022-10-08T02:21:20.133Z,47.90
2022-10-08T02:23:54.829Z,47.70
2022-10-08T02:26:29.746Z,47.60
2022-10-08T02:29:01.106Z,47.70
2022-10-08T02:31:33.639Z,47.60
2022-10-08T02:34:23.879Z,47.90
2022-10-08T02:37:03.140Z,48.10
2022-10-08T02:39:32.626Z,47.80
2022-10-08T02:42:04.617Z,47.90
2022-10-08T02:44:53.037Z,48.00
2022-10-08T02:47:23.534Z,48.00
2022-10-08T02:49:57.781Z,47.90
2022-10-08T02:52:28.045Z,48.60
2022-10-08T02:54:58.857Z,48.10
2022-10-08T02:57:39.285Z,48.00
2022-10-08T03:00:06.991Z,48.20
2022-10-08T03:02:41.647Z,48.00
2022-10-08T03:05:15.223Z,48.10
2022-10-08T03:07:42.480Z,48.10
2022-10-08T03:10:09.902Z,48.10
2022-10-08T03:12:36.579Z,48.20
2022-10-08T03:15:03.750Z,48.20
2022-10-08T03:17:38.922Z,48.20
2022-10-08T03:20:07.576Z,48.40
2022-10-08T03:22:34.939Z,48.30
2022-10-08T03:25:01.924Z,48.80
2022-10-08T03:27:28.532Z,48.40
2022-10-08T03:29:57.338Z,48.50
2022-10-08T03:32:25.008Z,48.50
2022-10-08T03:34:52.367Z,48.60
2022-10-08T03:37:20.510Z,48.70
2022-10-08T03:39:47.477Z,48.80
2022-10-08T03:42:14.104Z,48.80
2022-10-08T03:44:40.863Z,48.80
2022-10-08T03:47:07.846Z,48.80
2022-10-08T03:49:34.520Z,48.90
2022-10-08T03:52:01.406Z,48.90
2022-10-08T03:54:28.026Z,48.80
2022-10-08T03:56:55.086Z,48.70
2022-10-08T03:59:21.726Z,48.70
2022-10-08T04:01:48.970Z,48.70
2022-10-08T04:04:15.823Z,48.70
2022-10-08T04:06:42.690Z,48.70
2022-10-08T04:09:10.489Z,48.80
2022-10-08T04:11:37.667Z,48.80
2022-10-08T04:14:04.400Z,48.90
2022-10-08T04:16:31.022Z,48.90
2022-10-08T04:18:57.903Z,49.00
2022-10-08T04:21:24.603Z,48.90
2022-10-08T04:23:51.257Z,49.00
2022-10-08T04:26:18.597Z,49.00
2022-10-08T04:28:46.218Z,49.10
2022-10-08T04:31:19.309Z,49.20
2022-10-08T04:33:46.422Z,49.30
2022-10-08T04:36:16.081Z,49.40
2022-10-08T04:38:43.954Z,49.50
2022-10-08T04:41:19.798Z,49.50
2022-10-08T04:43:46.834Z,49.70
2022-10-08T04:46:16.366Z,49.50
2022-10-08T04:48:54.801Z,49.60
2022-10-08T04:51:24.250Z,49.80
2022-10-08T04:53:51.810Z,49.60
2022-10-08T04:56:21.602Z,49.70
2022-10-08T04:58:48.286Z,49.60
2022-10-08T05:01:17.721Z,49.60
2022-10-08T05:03:47.207Z,49.70
2022-10-08T05:06:17.465Z,49.70
2022-10-08T05:08:45.297Z,49.80
2022-10-08T05:11:12.684Z,49.80
2022-10-08T05:13:40.166Z,49.80
2022-10-08T05:16:12.879Z,49.90
2022-10-08T05:18:41.407Z,50.00
2022-10-08T05:21:16.134Z,50.00
2022-10-08T05:23:43.818Z,50.10
2022-10-08T05:26:53.143Z,49.90
2022-10-08T05:29:12.795Z,50.20
2022-10-08T05:31:39.682Z,49.80
2022-10-08T05:34:06.322Z,49.80
2022-10-08T05:36:36.757Z,49.80
2022-10-08T05:39:05.181Z,49.90
2022-10-08T05:41:34.818Z,49.90
2022-10-08T05:44:04.677Z,49.90
2022-10-08T05:46:33.458Z,49.90
2022-10-08T05:49:01.982Z,50.00
2022-10-08T05:51:28.989Z,50.00
2022-10-08T05:53:56.747Z,50.00
2022-10-08T05:56:25.316Z,50.10
2022-10-08T05:58:52.926Z,50.10
2022-10-08T06:01:22.364Z,50.20
2022-10-08T06:03:54.433Z,50.30
2022-10-08T06:06:23.047Z,50.30
2022-10-08T06:09:01.808Z,50.50
2022-10-08T06:11:30.971Z,50.70
2022-10-08T06:13:59.692Z,50.50
2022-10-08T06:16:28.420Z,50.50
2022-10-08T06:18:55.694Z,50.50
2022-10-08T06:21:25.387Z,50.50
2022-10-08T06:23:58.735Z,50.60
2022-10-08T06:26:32.947Z,50.70
2022-10-08T06:29:02.220Z,50.70
2022-10-08T06:31:29.104Z,50.60
2022-10-08T06:33:57.688Z,50.60
2022-10-08T06:36:26.820Z,50.60
2022-10-08T06:38:59.733Z,50.60
2022-10-08T06:41:27.636Z,50.60
2022-10-08T06:43:55.557Z,50.60
2022-10-08T06:46:22.877Z,50.60
2022-10-08T06:48:49.595Z,50.60
2022-10-08T06:51:18.096Z,50.60
2022-10-08T06:53:51.213Z,50.60
2022-10-08T06:56:18.196Z,50.70
2022-10-08T06:58:45.880Z,50.70
2022-10-08T07:01:15.470Z,50.70
2022-10-08T07:03:42.429Z,50.70
2022-10-08T07:06:11.186Z,50.70
2022-10-08T07:08:38.592Z,50.80
2022-10-08T07:11:12.539Z,50.80
2022-10-08T07:13:40.172Z,50.80
2022-10-08T07:16:15.736Z,50.80
2022-10-08T07:18:47.864Z,50.90
2022-10-08T07:21:15.974Z,50.90
2022-10-08T07:23:42.861Z,51.00
2022-10-08T07:26:20.965Z,50.90
2022-10-08T07:28:52.420Z,51.10
2022-10-08T07:31:22.491Z,50.90
2022-10-08T07:33:49.731Z,50.90
2022-10-08T07:36:18.633Z,50.90
2022-10-08T07:38:45.573Z,51.40
2022-10-08T07:41:12.993Z,51.40
2022-10-08T07:43:41.259Z,51.10
2022-10-08T07:46:10.585Z,51.20
2022-10-08T07:48:38.567Z,51.30
2022-10-08T07:51:11.137Z,51.40
2022-10-08T07:53:39.110Z,51.60
2022-10-08T07:56:07.594Z,51.60
2022-10-08T07:58:35.204Z,51.50
2022-10-08T08:01:03.674Z,51.40
2022-10-08T08:03:31.565Z,51.40
2022-10-08T08:06:06.021Z,51.50
2022-10-08T08:08:35.925Z,51.60
2022-10-08T08:11:04.065Z,51.50
2022-10-08T08:13:36.757Z,51.50
2022-10-08T08:16:06.802Z,51.70
2022-10-08T08:18:36.363Z,51.80
2022-10-08T08:21:11.290Z,51.90
2022-10-08T08:23:44.193Z,52.00
2022-10-08T08:26:13.858Z,52.10
2022-10-08T08:28:41.324Z,52.00
2022-10-08T08:31:10.570Z,51.90
2022-10-08T08:33:37.777Z,52.00
2022-10-08T08:36:04.795Z,51.90
2022-10-08T08:38:34.578Z,51.90
2022-10-08T08:41:35.080Z,51.90
2022-10-08T08:44:08.138Z,52.20
2022-10-08T08:46:40.887Z,51.90
2022-10-08T08:49:31.591Z,52.00
2022-10-08T08:52:01.716Z,52.40
2022-10-08T08:54:28.681Z,52.00
2022-10-08T08:56:55.712Z,52.10
2022-10-08T08:59:35.215Z,52.10
2022-10-08T09:02:12.418Z,52.40
2022-10-08T09:04:52.553Z,52.20
2022-10-08T09:07:24.999Z,52.40
2022-10-08T09:09:54.617Z,52.10
2022-10-08T09:12:35.661Z,52.10
2022-10-08T09:15:04.233Z,52.40
2022-10-08T09:17:38.858Z,52.10
2022-10-08T09:20:06.773Z,52.30
2022-10-08T09:22:40.957Z,52.30
2022-10-08T09:25:15.549Z,52.70
2022-10-08T09:27:56.780Z,52.80
2022-10-08T09:30:39.964Z,53.00
2022-10-08T09:33:12.888Z,53.20
2022-10-08T09:35:46.085Z,53.10
2022-10-08T09:38:29.283Z,53.10
2022-10-08T09:41:09.316Z,53.30
2022-10-08T09:43:36.358Z,53.90
2022-10-08T09:46:11.954Z,54.70
2022-10-08T09:48:39.522Z,55.00
2022-10-08T09:51:17.744Z,54.70
2022-10-08T09:53:50.137Z,54.50
2022-10-08T09:56:27.373Z,55.10
2022-10-08T09:58:58.073Z,55.10
2022-10-08T10:01:25.487Z,54.50
2022-10-08T10:04:02.004Z,54.70
2022-10-08T10:06:38.465Z,54.10
2022-10-08T10:09:11.422Z,53.30
2022-10-08T10:11:39.220Z,52.70
2022-10-08T10:14:25.721Z,53.10
2022-10-08T10:17:09.621Z,52.10
2022-10-08T10:19:44.244Z,51.00
2022-10-08T10:22:36.690Z,50.30
2022-10-08T10:25:19.413Z,49.60
2022-10-08T10:27:54.791Z,49.30
2022-10-08T10:30:24.012Z,49.50
2022-10-08T10:33:22.051Z,49.40
2022-10-08T10:36:04.446Z,48.50
2022-10-08T10:38:42.910Z,48.70
2022-10-08T10:41:21.378Z,48.20
2022-10-08T10:43:54.317Z,48.00
2022-10-08T10:46:44.675Z,48.70
2022-10-08T10:49:16.021Z,48.60
2022-10-08T10:52:34.517Z,48.50
2022-10-08T10:55:30.020Z,48.90
2022-10-08T10:58:09.969Z,50.40
2022-10-08T11:00:42.377Z,52.50
2022-10-08T11:03:22.448Z,53.10
2022-10-08T11:06:07.230Z,52.10
2022-10-08T11:08:48.217Z,50.40
2022-10-08T11:12:16.677Z,47.70
2022-10-08T11:15:09.453Z,45.60
2022-10-08T11:17:57.008Z,42.10
2022-10-08T11:20:39.709Z,41.60
2022-10-08T11:23:33.783Z,41.30
2022-10-08T11:26:53.094Z,41.10
2022-10-08T11:29:32.810Z,41.50
2022-10-08T11:32:01.066Z,43.70
2022-10-08T11:34:34.314Z,45.00
2022-10-08T11:37:16.159Z,44.80
2022-10-08T11:39:58.044Z,44.70
2022-10-08T11:42:51.448Z,45.50
2022-10-08T11:45:26.052Z,45.30
2022-10-08T11:47:55.318Z,45.10
2022-10-08T11:50:36.830Z,45.20
2022-10-08T11:53:15.547Z,43.90
2022-10-08T11:55:52.402Z,42.10
2022-10-08T11:58:26.795Z,40.10
2022-10-08T12:01:06.023Z,39.50
2022-10-08T12:03:38.390Z,39.10
2022-10-08T12:06:30.166Z,39.40
2022-10-08T12:08:58.813Z,38.80
2022-10-08T12:11:40.130Z,39.30
2022-10-08T12:14:13.148Z,38.90
2022-10-08T12:16:49.120Z,38.60
2022-10-08T12:19:34.393Z,38.70
2022-10-08T12:22:24.925Z,38.80
2022-10-08T12:24:53.743Z,39.40
2022-10-08T12:27:21.264Z,39.60
2022-10-08T12:30:00.076Z,40.60
2022-10-08T12:32:29.213Z,41.70
2022-10-08T12:34:56.714Z,42.60
2022-10-08T12:37:54.054Z,43.00
2022-10-08T12:40:46.782Z,42.70
2022-10-08T12:43:25.916Z,42.40
2022-10-08T12:46:10.127Z,42.40
2022-10-08T12:49:02.533Z,42.00
2022-10-08T12:51:45.408Z,41.50
2022-10-08T12:54:19.658Z,40.90
2022-10-08T12:56:47.908Z,40.40
2022-10-08T12:59:14.928Z,40.20
2022-10-08T13:01:43.429Z,39.60
2022-10-08T13:04:24.923Z,38.70
2022-10-08T13:06:53.780Z,37.60
2022-10-08T13:09:31.411Z,37.60
2022-10-08T13:12:03.519Z,37.10
2022-10-08T13:14:39.484Z,37.40
2022-10-08T13:17:06.659Z,36.90
2022-10-08T13:19:39.117Z,37.50
2022-10-08T13:22:25.793Z,37.50
2022-10-08T13:24:55.375Z,37.40
2022-10-08T13:27:33.769Z,37.80
2022-10-08T13:30:22.294Z,38.00
2022-10-08T13:32:48.989Z,38.20
2022-10-08T13:35:25.109Z,38.40
2022-10-08T13:37:53.362Z,38.90
2022-10-08T13:40:22.589Z,39.60
2022-10-08T13:42:52.069Z,39.80
2022-10-08T13:45:21.673Z,39.80
2022-10-08T13:47:50.005Z,39.60
2022-10-08T13:50:17.982Z,39.40
2022-10-08T13:52:47.664Z,39.20
2022-10-08T13:55:26.550Z,38.90
2022-10-08T13:57:55.210Z,38.40
2022-10-08T14:00:22.869Z,38.20
2022-10-08T14:02:51.549Z,38.10
2022-10-08T14:05:19.739Z,38.10
2022-10-08T14:07:50.664Z,38.10
2022-10-08T14:10:18.942Z,37.80
2022-10-08T14:12:45.727Z,38.10
2022-10-08T14:15:13.691Z,37.90
2022-10-08T14:17:40.545Z,37.40
2022-10-08T14:20:08.085Z,37.20
2022-10-08T14:22:38.717Z,37.40
2022-10-08T14:25:07.149Z,36.70
2022-10-08T14:27:34.065Z,36.30
2022-10-08T14:30:00.997Z,36.40
2022-10-08T14:32:27.679Z,36.40
2022-10-08T14:34:54.588Z,36.50
2022-10-08T14:37:21.213Z,36.40
2022-10-08T14:39:47.924Z,36.30
2022-10-08T14:42:14.543Z,35.60
2022-10-08T14:44:41.499Z,35.60
2022-10-08T14:47:08.155Z,35.30
2022-10-08T14:49:34.886Z,35.20
2022-10-08T14:52:01.799Z,35.10
2022-10-08T14:54:28.422Z,35.00
2022-10-08T14:56:55.193Z,35.10
2022-10-08T14:59:21.934Z,34.70
2022-10-08T15:01:48.729Z,35.00
2022-10-08T15:04:15.645Z,34.90
2022-10-08T15:06:42.846Z,34.80
2022-10-08T15:09:13.761Z,34.80
2022-10-08T15:11:40.489Z,33.90
2022-10-08T15:14:07.343Z,34.40
2022-10-08T15:16:34.720Z,34.50
2022-10-08T15:19:01.945Z,34.40
2022-10-08T15:21:28.612Z,33.70
2022-10-08T15:23:56.970Z,34.60
2022-10-08T15:26:23.662Z,34.10
2022-10-08T15:28:54.489Z,34.20
2022-10-08T15:31:25.139Z,34.30
2022-10-08T15:33:53.458Z,34.30
2022-10-08T15:36:21.613Z,34.30
2022-10-08T15:38:55.434Z,34.20
2022-10-08T15:41:22.166Z,34.20
2022-10-08T15:43:49.009Z,34.30
2022-10-08T15:46:17.884Z,34.40
2022-10-08T15:48:52.826Z,34.40
2022-10-08T15:51:20.968Z,34.80
2022-10-08T15:53:47.884Z,34.60
2022-10-08T15:56:15.203Z,34.60
2022-10-08T15:58:51.246Z,34.70
2022-10-08T16:01:20.873Z,34.70
2022-10-08T16:03:49.303Z,34.60
2022-10-08T16:06:22.032Z,34.60
2022-10-08T16:08:48.954Z,34.60
2022-10-08T16:11:21.658Z,34.60
2022-10-08T16:13:53.985Z,34.70
2022-10-08T16:16:21.304Z,34.80
2022-10-08T16:18:52.654Z,34.70
2022-10-08T16:21:20.802Z,34.60
2022-10-08T16:23:48.120Z,34.60
2022-10-08T16:26:20.501Z,34.70
2022-10-08T16:28:49.272Z,34.80
2022-10-08T16:31:16.742Z,34.90
2022-10-08T16:33:44.366Z,35.00
2022-10-08T16:36:12.729Z,35.10
2022-10-08T16:38:40.393Z,35.20
2022-10-08T16:41:11.208Z,35.50
2022-10-08T16:43:38.721Z,35.90
2022-10-08T16:46:12.041Z,36.10
2022-10-08T16:48:40.916Z,36.30
2022-10-08T16:51:07.989Z,36.60
2022-10-08T16:53:34.762Z,36.70
2022-10-08T16:56:03.426Z,36.90
2022-10-08T16:58:30.410Z,37.10
2022-10-08T17:00:57.256Z,37.30
2022-10-08T17:03:24.307Z,37.40
2022-10-08T17:05:50.955Z,37.70
2022-10-08T17:08:17.699Z,37.80
2022-10-08T17:10:44.302Z,38.00
2022-10-08T17:13:11.041Z,38.10
2022-10-08T17:15:37.663Z,38.20
2022-10-08T17:18:04.489Z,38.40
2022-10-08T17:20:31.405Z,38.50
2022-10-08T17:22:58.021Z,38.70
2022-10-08T17:25:24.920Z,38.90
2022-10-08T17:27:51.533Z,39.00
2022-10-08T17:30:18.326Z,39.20
2022-10-08T17:32:45.394Z,39.30
2022-10-08T17:35:12.284Z,39.50
2022-10-08T17:37:39.018Z,39.60
2022-10-08T17:40:06.469Z,39.70
2022-10-08T17:42:33.074Z,39.80
2022-10-08T17:45:00.021Z,40.00
2022-10-08T17:47:29.236Z,40.10
2022-10-08T17:49:56.027Z,40.10
2022-10-08T17:52:23.213Z,40.30
2022-10-08T17:54:49.844Z,40.40
2022-10-08T17:57:16.433Z,40.50
2022-10-08T17:59:43.697Z,40.60
2022-10-08T18:02:10.589Z,40.80
2022-10-08T18:04:37.641Z,40.90
2022-10-08T18:07:04.274Z,41.00
2022-10-08T18:09:31.144Z,41.20
2022-10-08T18:11:57.880Z,41.30
2022-10-08T18:14:24.732Z,41.40
2022-10-08T18:16:51.794Z,41.50
2022-10-08T18:19:18.909Z,41.60
2022-10-08T18:21:46.062Z,41.70
2022-10-08T18:24:12.785Z,41.80
2022-10-08T18:26:40.331Z,41.90
2022-10-08T18:29:10.345Z,41.90
2022-10-08T18:31:38.753Z,42.10
2022-10-08T18:34:09.225Z,42.20
2022-10-08T18:36:37.766Z,42.40
2022-10-08T18:39:13.449Z,42.60
2022-10-08T18:41:43.451Z,42.60
2022-10-08T18:44:16.262Z,42.60
2022-10-08T18:46:45.238Z,42.90
2022-10-08T18:49:17.124Z,42.80
2022-10-08T18:51:44.755Z,43.00
2022-10-08T18:54:13.054Z,43.00
2022-10-08T18:56:41.066Z,43.00
2022-10-08T18:59:11.855Z,43.10
2022-10-08T19:01:41.606Z,43.20
2022-10-08T19:04:12.246Z,43.20
2022-10-08T19:06:42.291Z,43.30
2022-10-08T19:09:09.230Z,43.40
2022-10-08T19:11:45.429Z,43.40
2022-10-08T19:14:14.888Z,43.60
2022-10-08T19:16:43.238Z,43.80
2022-10-08T19:19:18.417Z,43.80
2022-10-08T19:21:45.951Z,43.90
2022-10-08T19:24:15.825Z,43.80
2022-10-08T19:26:43.138Z,44.00
2022-10-08T19:29:31.786Z,43.90
2022-10-08T19:31:58.671Z,44.30
2022-10-08T19:34:26.961Z,44.00
2022-10-08T19:36:53.715Z,44.10
2022-10-08T19:39:26.385Z,44.20
2022-10-08T19:41:53.577Z,44.30
2022-10-08T19:44:20.844Z,44.30
2022-10-08T19:46:48.283Z,44.40
2022-10-08T19:49:15.872Z,44.90
2022-10-08T19:51:43.197Z,44.50
2022-10-08T19:54:10.293Z,44.60
2022-10-08T19:56:37.332Z,44.70
2022-10-08T19:59:05.517Z,44.80
2022-10-08T20:01:35.185Z,44.80
2022-10-08T20:04:03.262Z,44.80
2022-10-08T20:06:32.749Z,44.80
2022-10-08T20:09:02.012Z,45.00
2022-10-08T20:11:30.072Z,45.00
2022-10-08T20:13:58.141Z,45.00
2022-10-08T20:16:27.997Z,45.20
2022-10-08T20:19:14.210Z,45.20
2022-10-08T20:21:40.898Z,45.50
2022-10-08T20:24:08.051Z,45.10
2022-10-08T20:26:37.566Z,45.20
2022-10-08T20:29:07.190Z,45.40
2022-10-08T20:31:40.671Z,45.40
2022-10-08T20:34:13.428Z,45.60
2022-10-08T20:36:40.516Z,45.60
2022-10-08T20:39:07.508Z,45.50
2022-10-08T20:41:34.150Z,45.60
2022-10-08T20:44:02.815Z,46.10
2022-10-08T20:46:31.004Z,45.70
2022-10-08T20:48:58.074Z,45.70
2022-10-08T20:51:26.119Z,45.80
2022-10-08T20:53:57.200Z,45.80
2022-10-08T20:56:24.952Z,45.90
2022-10-08T20:58:52.401Z,45.90
2022-10-08T21:01:30.322Z,46.00
2022-10-08T21:03:57.994Z,46.50
2022-10-08T21:06:27.659Z,46.10
2022-10-08T21:08:56.031Z,46.10
2022-10-08T21:11:26.833Z,46.10
2022-10-08T21:13:53.770Z,46.20
2022-10-08T21:16:28.662Z,46.30
2022-10-08T21:18:57.806Z,46.50
2022-10-08T21:21:25.786Z,46.40
2022-10-08T21:23:53.132Z,46.40
2022-10-08T21:26:25.536Z,46.40
2022-10-08T21:29:00.808Z,46.50
2022-10-08T21:31:29.296Z,46.50
2022-10-08T21:33:56.744Z,46.50
2022-10-08T21:36:26.405Z,46.50
2022-10-08T21:38:53.733Z,46.60
2022-10-08T21:41:22.738Z,46.60
2022-10-08T21:43:52.592Z,46.60
2022-10-08T21:46:21.725Z,46.70
2022-10-08T21:48:53.745Z,46.70
2022-10-08T21:51:20.737Z,46.80
2022-10-08T21:53:49.846Z,46.70
2022-10-08T21:56:19.085Z,46.80
2022-10-08T21:58:51.102Z,46.80
2022-10-08T22:01:35.176Z,46.90
2022-10-08T22:04:03.736Z,47.20
2022-10-08T22:06:33.296Z,46.80
2022-10-08T22:09:00.184Z,46.90
2022-10-08T22:11:27.317Z,47.00
2022-10-08T22:13:54.052Z,47.10
2022-10-08T22:16:22.240Z,47.00
2022-10-08T22:18:49.073Z,47.10
2022-10-08T22:21:19.652Z,47.10
2022-10-08T22:23:47.454Z,47.10
2022-10-08T22:26:20.354Z,47.20
2022-10-08T22:28:47.758Z,47.20
2022-10-08T22:31:16.324Z,47.20
2022-10-08T22:33:43.717Z,47.30
2022-10-08T22:36:19.311Z,47.30
2022-10-08T22:38:47.101Z,47.50
2022-10-08T22:41:18.534Z,47.30
2022-10-08T22:43:45.495Z,47.40
2022-10-08T22:46:18.289Z,47.40
2022-10-08T22:48:45.729Z,47.50
2022-10-08T22:51:15.627Z,47.50
2022-10-08T22:53:42.922Z,47.60
2022-10-08T22:56:15.625Z,47.70
2022-10-08T22:58:43.115Z,47.70
2022-10-08T23:01:13.165Z,47.60
2022-10-08T23:03:40.260Z,47.70
2022-10-08T23:06:08.016Z,47.70
2022-10-08T23:08:36.038Z,47.70
2022-10-08T23:11:03.329Z,47.80
2022-10-08T23:13:30.288Z,47.80
2022-10-08T23:16:05.993Z,47.80
2022-10-08T23:18:35.706Z,47.80
2022-10-08T23:21:04.314Z,47.80
2022-10-08T23:23:31.881Z,47.80
2022-10-08T23:26:00.980Z,47.80
2022-10-08T23:28:28.886Z,47.90
2022-10-08T23:31:02.659Z,47.90
2022-10-08T23:33:29.536Z,47.90
2022-10-08T23:35:56.361Z,47.90
2022-10-08T23:38:23.321Z,48.00
2022-10-08T23:40:50.589Z,48.10
2022-10-08T23:43:17.774Z,48.10
2022-10-08T23:45:44.561Z,48.10
2022-10-08T23:48:11.821Z,48.10
2022-10-08T23:50:38.764Z,48.20
2022-10-08T23:53:05.454Z,48.20
2022-10-08T23:55:32.284Z,48.10
2022-10-08T23:57:58.901Z,48.20
